Time;durP1;ratioP1;P1;durP2;ratioP2;P2;SDS_P1;SDS_P2;PMS_P1;PMS_P2;Temp;Humidity;BMP_temperature;BMP_pressure;BME280_temperature;BME280_humidity;BME280_pressure;Samples;Min_cycle;Max_cycle;Signal;HPM_P1;HPM_P2
2022/08/14 00:00:51;;;;;;;9.83;6.40;;;23.10;24.30;;;;;;4955065;29;20427;-72
2022/08/14 00:03:22;;;;;;;10.20;6.47;;;23.00;24.30;;;;;;4960210;28;20433;-72
2022/08/14 00:05:48;;;;;;;12.53;6.33;;;23.00;24.40;;;;;;4961587;28;20196;-72
2022/08/14 00:08:14;;;;;;;7.73;5.70;;;22.80;24.50;;;;;;4957246;28;20903;-72
2022/08/14 00:10:40;;;;;;;6.67;6.03;;;22.70;24.60;;;;;;4962843;28;20187;-73
2022/08/14 00:13:07;;;;;;;9.07;6.03;;;22.90;24.50;;;;;;4974367;28;20177;-72
2022/08/14 00:15:35;;;;;;;7.40;6.17;;;22.80;25.30;;;;;;4974914;28;20500;-72
2022/08/14 00:18:01;;;;;;;11.80;5.90;;;22.70;24.50;;;;;;4964553;28;20496;-72
2022/08/14 00:20:30;;;;;;;6.47;5.90;;;22.70;25.10;;;;;;4966892;28;20446;-72
2022/08/14 00:22:56;;;;;;;8.10;5.83;;;22.80;24.70;;;;;;4974251;28;20826;-73
2022/08/14 00:25:22;;;;;;;5.97;5.23;;;22.70;25.00;;;;;;4974433;28;20408;-72
2022/08/14 00:27:48;;;;;;;8.87;6.50;;;;;;;;;;4961479;28;20443;-74
2022/08/14 00:30:14;;;;;;;7.60;6.00;;;22.70;24.40;;;;;;4961155;28;20225;-72
2022/08/14 00:32:41;;;;;;;10.10;6.37;;;22.60;25.30;;;;;;4974211;28;20426;-73
2022/08/14 00:35:08;;;;;;;9.87;6.03;;;22.90;24.80;;;;;;4969506;28;20463;-72
2022/08/14 00:37:34;;;;;;;8.53;6.10;;;23.10;23.90;;;;;;4967756;28;20471;-72
2022/08/14 00:40:00;;;;;;;7.03;5.77;;;23.30;23.40;;;;;;4948911;28;20457;-72
2022/08/14 00:42:28;;;;;;;10.10;6.37;;;23.40;23.50;;;;;;4935620;29;20414;-73
2022/08/14 00:44:55;;;;;;;12.00;6.10;;;23.40;24.70;;;;;;4958562;28;20906;-72
2022/08/14 00:47:23;;;;;;;7.47;5.90;;;22.90;25.10;;;;;;4965163;28;20895;-72
2022/08/14 00:49:52;;;;;;;7.83;6.27;;;22.70;25.30;;;;;;4966322;28;20545;-72
2022/08/14 00:52:18;;;;;;;8.93;6.63;;;22.80;24.80;;;;;;4962228;28;20429;-72
2022/08/14 00:54:46;;;;;;;9.53;6.13;;;23.00;25.50;;;;;;4954717;29;20537;-73
2022/08/14 00:57:11;;;;;;;7.50;6.30;;;22.70;25.40;;;;;;4955879;28;20483;-72
2022/08/14 00:59:38;;;;;;;10.00;6.40;;;22.50;26.20;;;;;;4954650;29;20438;-72
2022/08/14 01:02:04;;;;;;;8.20;6.90;;;22.30;25.50;;;;;;4944153;28;20571;-72
2022/08/14 01:04:35;;;;;;;16.03;7.67;;;22.40;26.10;;;;;;4956401;28;20860;-72
2022/08/14 01:07:00;;;;;;;12.20;8.20;;;22.30;26.40;;;;;;4965128;28;20998;-73
2022/08/14 01:09:28;;;;;;;10.63;6.30;;;22.10;26.40;;;;;;4965959;28;20449;-72
2022/08/14 01:11:56;;;;;;;10.53;7.77;;;22.20;27.10;;;;;;4959341;28;20193;-73
2022/08/14 01:14:22;;;;;;;15.10;8.00;;;22.10;27.50;;;;;;4953493;28;20439;-72
2022/08/14 01:16:47;;;;;;;8.20;7.33;;;22.10;27.20;;;;;;4955263;28;20821;-72
2022/08/14 01:21:58;;;;;;;17.70;13.33;;;21.90;27.30;;;;;;4954329;29;20232;-72
2022/08/14 01:24:25;;;;;;;16.20;8.10;;;21.90;28.00;;;;;;4954938;28;20440;-72
2022/08/14 01:26:52;;;;;;;13.13;8.10;;;21.70;27.20;;;;;;4960320;28;20444;-72
2022/08/14 01:29:19;;;;;;;15.23;7.33;;;21.40;27.10;;;;;;4960130;28;20464;-72
2022/08/14 01:31:54;;;;;;;11.70;7.30;;;21.50;27.10;;;;;;4953812;29;20451;-72
2022/08/14 01:34:22;;;;;;;10.30;7.40;;;21.40;27.90;;;;;;4953224;29;20449;-73
2022/08/14 01:36:49;;;;;;;11.50;8.13;;;21.10;27.90;;;;;;4961559;28;20467;-73
2022/08/14 01:39:16;;;;;;;11.47;8.03;;;21.20;28.10;;;;;;4958960;28;20467;-72
2022/08/14 01:41:47;;;;;;;9.60;7.23;;;21.30;28.20;;;;;;4961414;28;20428;-72
2022/08/14 01:44:14;;;;;;;10.47;8.10;;;21.40;27.90;;;;;;4971638;28;20406;-72
2022/08/14 01:46:43;;;;;;;13.63;7.47;;;21.50;28.00;;;;;;4973288;28;20862;-72
2022/08/14 01:49:11;;;;;;;9.80;7.83;;;21.40;28.10;;;;;;4959502;28;20536;-71
2022/08/14 01:51:38;;;;;;;9.53;7.57;;;21.60;28.00;;;;;;4959939;28;20801;-72
2022/08/14 01:54:13;;;;;;;8.40;7.53;;;21.40;28.00;;;;;;4953157;28;20410;-72
2022/08/14 01:56:39;;;;;;;9.30;7.07;;;21.20;27.80;;;;;;4960043;28;20469;-72
2022/08/14 01:59:20;;;;;;;8.60;7.10;;;21.10;28.10;;;;;;4948479;28;21077;-71
2022/08/14 02:01:51;;;;;;;10.60;7.77;;;21.00;28.60;;;;;;4949434;28;20811;-72
2022/08/14 02:04:19;;;;;;;8.20;6.70;;;20.90;28.70;;;;;;4948220;28;20799;-72
2022/08/14 02:06:45;;;;;;;10.87;8.00;;;21.00;28.50;;;;;;4958395;28;20454;-73
2022/08/14 02:09:11;;;;;;;10.53;7.63;;;20.90;29.20;;;;;;4950067;29;20500;-72
2022/08/14 02:11:37;;;;;;;15.03;7.30;;;20.90;28.90;;;;;;4952265;28;20530;-72
2022/08/14 02:14:06;;;;;;;9.90;7.87;;;20.90;29.80;;;;;;4956553;28;20189;-72
2022/08/14 02:16:38;;;;;;;15.20;7.53;;;20.80;28.90;;;;;;4964051;28;20634;-72
2022/08/14 02:19:11;;;;;;;9.67;7.57;;;20.90;29.20;;;;;;4970802;28;20440;-72
2022/08/14 02:21:37;;;;;;;9.70;8.13;;;20.80;29.10;;;;;;4970548;28;20386;-72
2022/08/14 02:24:05;;;;;;;9.70;8.00;;;20.70;29.50;;;;;;4957806;28;20810;-72
2022/08/14 02:26:36;;;;;;;12.20;7.60;;;20.60;29.80;;;;;;4957336;28;20445;-72
2022/08/14 02:29:06;;;;;;;12.53;7.73;;;20.50;29.80;;;;;;4952746;28;20529;-72
2022/08/14 02:31:34;;;;;;;11.23;8.23;;;20.60;29.20;;;;;;4964214;28;20496;-72
2022/08/14 02:34:06;;;;;;;16.43;7.97;;;20.60;30.00;;;;;;4968961;28;20417;-72
2022/08/14 02:36:32;;;;;;;10.30;7.73;;;20.70;30.00;;;;;;4951709;28;20832;-72
2022/08/14 02:38:58;;;;;;;13.57;8.50;;;20.80;29.80;;;;;;4970970;28;20444;-72
2022/08/14 02:41:24;;;;;;;9.80;8.00;;;20.80;29.40;;;;;;4972184;28;20413;-72
2022/08/14 02:43:49;;;;;;;9.27;8.07;;;20.70;30.00;;;;;;4971942;28;20180;-73
2022/08/14 02:46:16;;;;;;;14.67;7.90;;;20.70;29.70;;;;;;4957564;28;20198;-72
2022/08/14 02:48:43;;;;;;;12.07;7.57;;;20.60;29.60;;;;;;4966527;28;20782;-72
2022/08/14 02:51:12;;;;;;;10.03;7.97;;;20.60;30.00;;;;;;4971988;28;20530;-72
2022/08/14 02:53:45;;;;;;;9.77;7.37;;;20.60;29.60;;;;;;4972081;28;20420;-72
2022/08/14 02:56:18;;;;;;;11.17;8.13;;;20.50;29.90;;;;;;4962530;28;20955;-72
2022/08/14 02:58:50;;;;;;;10.93;8.43;;;20.50;29.90;;;;;;4965678;28;20548;-71
2022/08/14 03:01:19;;;;;;;15.40;8.40;;;20.50;30.40;;;;;;4972149;28;20386;-72
2022/08/14 03:03:47;;;;;;;10.60;8.33;;;20.40;30.30;;;;;;4971662;28;20912;-72
2022/08/14 03:06:14;;;;;;;12.20;8.50;;;20.50;30.00;;;;;;4958780;28;20445;-72
2022/08/14 03:08:40;;;;;;;10.97;8.20;;;20.40;29.80;;;;;;4960029;28;20984;-72
2022/08/14 03:11:08;;;;;;;12.90;9.33;;;20.30;31.40;;;;;;4962141;28;20478;-72
2022/08/14 03:13:36;;;;;;;14.50;9.30;;;20.20;30.60;;;;;;4962035;28;20451;-71
2022/08/14 03:16:13;;;;;;;12.10;9.30;;;20.20;30.80;;;;;;4962964;28;20527;-72
2022/08/14 03:18:41;;;;;;;15.73;9.20;;;20.20;30.80;;;;;;4948250;28;20485;-72
2022/08/14 03:21:12;;;;;;;13.37;10.23;;;20.20;31.10;;;;;;4964991;28;20441;-72
2022/08/14 03:23:42;;;;;;;12.40;9.13;;;20.30;31.50;;;;;;4975766;28;20404;-72
2022/08/14 03:26:09;;;;;;;14.17;10.00;;;20.40;30.00;;;;;;4975766;28;20398;-72
2022/08/14 03:28:39;;;;;;;17.20;9.20;;;20.30;30.80;;;;;;4955305;28;20906;-71
2022/08/14 03:31:05;;;;;;;12.50;9.53;;;20.20;30.80;;;;;;4964578;28;20427;-72
2022/08/14 03:33:31;;;;;;;14.90;10.47;;;20.10;30.60;;;;;;4975544;28;20787;-72
2022/08/14 03:35:58;;;;;;;14.90;9.60;;;20.10;31.20;;;;;;4966095;28;20436;-71
2022/08/14 03:38:24;;;;;;;15.00;9.80;;;20.00;31.20;;;;;;4958979;28;20196;-71
2022/08/14 03:40:49;;;;;;;15.40;9.67;;;20.00;32.30;;;;;;4960696;28;20427;-72
2022/08/14 03:43:16;;;;;;;12.90;10.23;;;19.90;31.50;;;;;;4955981;29;20419;-71
2022/08/14 03:45:43;;;;;;;13.47;9.30;;;19.80;32.40;;;;;;4956180;28;20170;-72
2022/08/14 03:48:21;;;;;;;12.93;9.57;;;19.70;31.50;;;;;;4953174;28;20585;-72
2022/08/14 03:50:50;;;;;;;11.20;9.23;;;19.70;31.90;;;;;;4967020;28;20417;-71
2022/08/14 03:53:18;;;;;;;10.40;8.20;;;19.80;31.80;;;;;;4975485;28;20877;-72
2022/08/14 03:55:45;;;;;;;11.47;8.37;;;19.70;31.10;;;;;;4975322;28;20485;-71
2022/08/14 03:58:12;;;;;;;10.90;8.53;;;19.60;30.80;;;;;;4968592;28;20476;-72
2022/08/14 04:00:39;;;;;;;10.90;8.30;;;19.60;32.10;;;;;;4962252;28;20834;-72
2022/08/14 04:03:08;;;;;;;11.10;8.20;;;19.40;32.80;;;;;;4965382;28;20973;-72
2022/08/14 04:05:36;;;;;;;11.60;8.20;;;19.40;31.90;;;;;;4966990;28;20433;-72
2022/08/14 04:08:02;;;;;;;10.80;8.90;;;19.50;31.00;;;;;;4966732;28;20437;-72
2022/08/14 04:10:28;;;;;;;14.53;10.13;;;19.50;31.70;;;;;;4963952;28;20852;-72
2022/08/14 04:12:58;;;;;;;17.37;9.43;;;19.60;31.10;;;;;;4955309;28;20191;-72
2022/08/14 04:15:25;;;;;;;10.60;8.60;;;19.80;31.70;;;;;;4955616;28;20197;-72
2022/08/14 04:17:52;;;;;;;13.13;9.10;;;19.70;32.00;;;;;;4960715;28;20846;-71
2022/08/14 04:20:18;;;;;;;12.60;9.00;;;19.70;31.90;;;;;;4951317;28;20448;-72
2022/08/14 04:22:44;;;;;;;10.47;8.80;;;19.90;31.00;;;;;;4960543;28;20816;-73
2022/08/14 04:25:10;;;;;;;12.27;8.73;;;20.10;30.20;;;;;;4954866;28;20417;-72
2022/08/14 04:27:36;;;;;;;16.87;8.50;;;20.30;29.90;;;;;;4955364;29;20428;-73
2022/08/14 04:30:04;;;;;;;11.83;8.97;;;20.10;30.30;;;;;;4954941;28;20641;-73
2022/08/14 04:32:32;;;;;;;11.40;8.73;;;19.90;30.90;;;;;;4962190;28;20443;-72
2022/08/14 04:35:01;;;;;;;20.40;8.80;;;19.80;31.70;;;;;;4962288;28;20454;-71
2022/08/14 04:45:42;;;;;;;9.70;7.80;;;19.50;32.30;;;;;;4955220;29;20400;-71
2022/08/14 04:48:19;;;;;;;12.50;8.67;;;19.60;31.60;;;;;;4955208;28;20507;-72
2022/08/14 04:50:50;;;;;;;10.17;8.10;;;19.60;32.30;;;;;;4954453;28;20448;-71
2022/08/14 04:53:21;;;;;;;14.03;10.87;;;19.60;32.70;;;;;;4951507;28;20445;-72
2022/08/14 04:55:49;;;;;;;19.63;12.80;;;19.50;31.70;;;;;;4966120;28;20419;-71
2022/08/14 04:58:27;;;;;;;17.60;14.43;;;19.30;31.70;;;;;;4962862;28;20490;-71
2022/08/14 05:00:54;;;;;;;35.10;23.93;;;19.40;32.80;;;;;;4965524;28;20418;-72
2022/08/14 05:03:25;;;;;;;22.23;18.17;;;19.70;31.80;;;;;;4960079;28;20549;-73
2022/08/14 05:05:56;;;;;;;33.07;27.47;;;19.80;32.20;;;;;;4953146;29;20518;-72
2022/08/14 05:08:22;;;;;;;17.10;10.00;;;19.80;32.40;;;;;;4962202;28;20457;-72
2022/08/14 05:10:50;;;;;;;11.17;8.40;;;20.00;30.60;;;;;;4965224;28;20935;-72
2022/08/14 05:13:18;;;;;;;10.53;8.43;;;20.20;30.10;;;;;;4962375;28;20518;-72
2022/08/14 05:15:45;;;;;;;18.73;8.90;;;20.20;30.30;;;;;;4954869;28;20526;-72
2022/08/14 05:18:16;;;;;;;9.07;7.87;;;20.30;30.20;;;;;;4963040;28;20601;-71
2022/08/14 05:20:47;;;;;;;13.10;8.30;;;20.20;29.90;;;;;;4957504;28;20429;-72
2022/08/14 05:23:17;;;;;;;14.20;7.93;;;20.40;29.10;;;;;;4953873;28;20497;-72
2022/08/14 05:25:43;;;;;;;16.70;7.90;;;20.70;28.60;;;;;;4952932;28;20445;-72
2022/08/14 05:28:18;;;;;;;9.03;7.93;;;20.60;29.40;;;;;;4965491;28;20445;-72
2022/08/14 05:31:05;;;;;;;17.60;8.40;;;20.60;30.40;;;;;;4957615;28;20921;-73
2022/08/14 05:33:33;;;;;;;11.43;8.43;;;20.60;29.90;;;;;;4954740;28;20426;-72
2022/08/14 05:36:00;;;;;;;14.10;8.80;;;20.50;30.00;;;;;;4951440;28;20496;-72
2022/08/14 05:38:28;;;;;;;9.47;8.00;;;20.60;30.60;;;;;;4954292;29;20441;-73
2022/08/14 05:40:55;;;;;;;12.13;8.30;;;20.20;29.40;;;;;;4957797;28;20515;-72
2022/08/14 05:43:21;;;;;;;13.83;8.03;;;20.40;30.40;;;;;;4947801;28;20465;-72
2022/08/14 05:45:47;;;;;;;8.87;7.60;;;20.20;29.00;;;;;;4963443;28;20515;-71
2022/08/14 05:48:14;;;;;;;14.77;7.90;;;20.40;29.50;;;;;;4965583;28;20221;-71
2022/08/14 05:50:41;;;;;;;9.40;7.27;;;20.40;30.30;;;;;;4957504;28;20441;-73
2022/08/14 05:53:07;;;;;;;11.27;7.73;;;20.50;29.50;;;;;;4959459;28;20902;-72
2022/08/14 05:55:32;;;;;;;11.77;8.23;;;20.70;29.90;;;;;;4967439;28;20430;-72
2022/08/14 05:58:01;;;;;;;14.33;9.07;;;20.70;28.50;;;;;;4934558;29;20467;-72
2022/08/14 06:00:34;;;;;;;11.10;8.70;;;20.70;28.20;;;;;;4947065;28;20171;-72
2022/08/14 06:03:01;;;;;;;10.50;8.40;;;20.40;29.70;;;;;;4943795;28;20453;-72
2022/08/14 06:05:28;;;;;;;10.43;8.00;;;20.00;30.00;;;;;;4934378;29;20416;-72
2022/08/14 06:07:53;;;;;;;12.77;8.77;;;20.80;29.40;;;;;;4950536;29;20462;-72
2022/08/14 06:10:19;;;;;;;10.43;8.40;;;20.80;29.90;;;;;;4953036;29;20452;-72
2022/08/14 06:12:45;;;;;;;19.07;9.53;;;20.90;29.10;;;;;;4955722;28;20213;-72
2022/08/14 06:15:10;;;;;;;12.73;8.97;;;21.00;29.50;;;;;;4964597;28;20508;-72
2022/08/14 06:17:55;;;;;;;13.33;9.17;;;21.30;29.40;;;;;;4957164;28;20207;-72
2022/08/14 06:20:21;;;;;;;20.30;8.70;;;21.40;29.30;;;;;;4961473;28;20187;-72
2022/08/14 06:22:47;;;;;;;15.50;8.83;;;21.20;28.30;;;;;;4957697;28;20440;-73
2022/08/14 06:25:14;;;;;;;12.70;8.10;;;21.00;28.90;;;;;;4960949;28;20428;-73
2022/08/14 06:27:43;;;;;;;12.30;7.77;;;21.10;28.60;;;;;;4950564;29;20447;-73
2022/08/14 06:30:15;;;;;;;10.77;8.17;;;21.50;29.60;;;;;;4934173;29;20476;-73
2022/08/14 06:32:41;;;;;;;13.43;7.60;;;21.60;29.50;;;;;;4936835;29;20427;-73
2022/08/14 06:35:08;;;;;;;10.50;7.57;;;21.40;27.70;;;;;;4959238;28;20429;-73
2022/08/14 06:37:42;;;;;;;8.97;7.37;;;21.50;28.90;;;;;;4968012;28;20219;-73
2022/08/14 06:40:09;;;;;;;9.77;8.20;;;21.70;28.50;;;;;;4959623;28;20439;-73
2022/08/14 06:42:35;;;;;;;12.27;8.27;;;21.50;28.10;;;;;;4971992;28;20407;-73
2022/08/14 06:45:01;;;;;;;10.87;9.20;;;21.70;28.90;;;;;;4948470;28;20773;-73
2022/08/14 06:47:27;;;;;;;17.50;9.00;;;21.50;27.00;;;;;;4963147;28;20446;-73
2022/08/14 06:49:52;;;;;;;12.13;8.10;;;20.80;28.50;;;;;;4926700;29;20621;-73
2022/08/14 06:52:18;;;;;;;13.20;9.00;;;20.90;28.80;;;;;;4933576;29;20172;-71
2022/08/14 06:54:44;;;;;;;14.47;8.40;;;21.50;29.30;;;;;;4941097;28;20184;-71
2022/08/14 06:57:10;;;;;;;11.80;9.73;;;21.80;29.00;;;;;;4960074;28;20688;-71
2022/08/14 06:59:36;;;;;;;10.13;8.70;;;21.80;26.60;;;;;;4958371;28;20495;-71
2022/08/14 07:07:37;;;;;;;8.60;7.47;;;22.00;27.40;;;;;;4960807;28;20472;-71
2022/08/14 07:10:04;;;;;;;11.20;8.20;;;21.60;27.10;;;;;;4948895;28;20509;-71
2022/08/14 07:12:30;;;;;;;9.60;7.90;;;21.60;27.10;;;;;;4946731;28;20448;-71
2022/08/14 07:14:56;;;;;;;14.53;8.03;;;21.50;27.50;;;;;;4951717;28;20448;-71
2022/08/14 07:17:21;;;;;;;10.77;7.60;;;21.60;27.10;;;;;;4941383;28;20477;-71
2022/08/14 07:19:47;;;;;;;12.60;7.67;;;21.70;27.20;;;;;;4959034;28;20207;-71
2022/08/14 07:22:12;;;;;;;9.27;7.33;;;21.80;27.30;;;;;;4957594;28;20193;-73
2022/08/14 07:24:38;;;;;;;9.07;7.50;;;22.10;27.30;;;;;;4954205;28;20178;-71
2022/08/14 07:27:04;;;;;;;12.03;7.90;;;22.20;27.50;;;;;;4967297;28;20953;-74
2022/08/14 07:29:30;;;;;;;15.70;8.70;;;22.20;27.00;;;;;;4957713;28;20222;-72
2022/08/14 07:31:55;;;;;;;10.90;8.30;;;22.20;26.90;;;;;;4965211;28;20472;-72
2022/08/14 07:34:21;;;;;;;12.50;8.30;;;22.80;25.90;;;;;;4953110;28;20248;-72
2022/08/14 07:36:47;;;;;;;10.80;7.77;;;22.40;26.50;;;;;;4952386;28;20208;-71
2022/08/14 07:39:13;;;;;;;11.13;8.97;;;22.20;27.30;;;;;;4953786;28;20200;-73
2022/08/14 07:41:39;;;;;;;10.00;7.60;;;22.20;27.50;;;;;;4959263;28;20435;-73
2022/08/14 07:44:05;;;;;;;13.30;7.63;;;22.30;27.60;;;;;;4955505;28;20475;-72
2022/08/14 07:46:30;;;;;;;13.70;7.93;;;22.30;27.60;;;;;;4952669;29;20430;-75
2022/08/14 07:48:57;;;;;;;9.47;8.43;;;22.70;27.00;;;;;;4952644;29;20197;-74
2022/08/14 07:51:23;;;;;;;13.73;7.53;;;23.30;25.60;;;;;;4950677;28;21026;-73
2022/08/14 07:53:48;;;;;;;14.50;7.80;;;24.50;27.90;;;;;;4953876;28;20468;-71
2022/08/14 07:56:16;;;;;;;12.97;7.80;;;22.80;26.90;;;;;;4953811;28;20200;-71
2022/08/14 07:58:41;;;;;;;12.30;7.67;;;23.40;26.10;;;;;;4953099;28;20745;-72
2022/08/14 08:01:08;;;;;;;9.83;7.70;;;23.70;25.50;;;;;;4955897;28;20518;-72
2022/08/14 08:03:35;;;;;;;9.87;7.27;;;23.60;25.40;;;;;;4965258;28;20609;-73
2022/08/14 08:06:01;;;;;;;9.63;7.40;;;23.60;25.70;;;;;;4975193;28;20419;-72
2022/08/14 08:08:29;;;;;;;15.53;6.90;;;24.10;25.00;;;;;;4956392;28;20454;-72
2022/08/14 08:10:56;;;;;;;12.50;7.30;;;24.00;24.90;;;;;;4955577;28;21192;-72
2022/08/14 08:13:22;;;;;;;8.97;6.30;;;24.30;24.50;;;;;;4952100;28;20429;-72
2022/08/14 08:15:56;;;;;;;8.90;6.67;;;24.40;25.40;;;;;;4962201;28;21117;-72
2022/08/14 08:18:23;;;;;;;6.70;6.30;;;25.70;25.20;;;;;;4955925;28;20476;-72
2022/08/14 08:20:51;;;;;;;7.37;6.70;;;25.20;24.10;;;;;;4959642;28;20444;-72
2022/08/14 08:23:19;;;;;;;8.40;7.20;;;25.40;23.20;;;;;;4963092;28;20490;-72
2022/08/14 08:25:47;;;;;;;8.60;7.10;;;24.80;24.40;;;;;;4963071;28;20442;-72
2022/08/14 08:28:22;;;;;;;16.83;7.20;;;25.20;23.90;;;;;;4956576;28;20521;-74
2022/08/14 08:30:51;;;;;;;11.93;6.30;;;25.30;23.40;;;;;;4954837;28;21094;-73
2022/08/14 08:33:18;;;;;;;9.87;6.80;;;25.40;23.80;;;;;;4967015;28;20562;-74
2022/08/14 08:35:45;;;;;;;7.13;6.47;;;24.90;24.10;;;;;;4959123;28;20435;-74
2022/08/14 08:38:14;;;;;;;7.60;6.40;;;25.10;24.10;;;;;;4954385;28;20561;-75
2022/08/14 08:40:45;;;;;;;7.20;6.40;;;25.00;24.00;;;;;;4958128;28;20448;-74
2022/08/14 08:43:23;;;;;;;6.80;5.80;;;25.10;23.10;;;;;;4973982;28;20410;-75
2022/08/14 08:46:01;;;;;;;11.50;6.47;;;25.90;23.30;;;;;;4950989;28;20435;-74
2022/08/14 08:48:30;;;;;;;7.03;5.97;;;25.70;22.70;;;;;;4941328;28;20458;-74
2022/08/14 08:50:58;;;;;;;9.47;6.20;;;26.20;22.70;;;;;;4951963;28;20452;-74
2022/08/14 08:53:31;;;;;;;7.17;6.07;;;26.30;21.10;;;;;;4965174;28;20453;-74
2022/08/14 08:55:57;;;;;;;9.93;6.00;;;25.80;22.40;;;;;;4965984;28;20422;-74
2022/08/14 08:58:23;;;;;;;8.43;5.70;;;26.40;21.60;;;;;;4936999;28;20842;-74
2022/08/14 09:00:53;;;;;;;9.63;5.23;;;27.00;21.90;;;;;;4925831;29;20822;-74
2022/08/14 09:03:23;;;;;;;19.03;5.33;;;27.20;19.40;;;;;;4962620;28;21082;-74
2022/08/14 09:06:04;;;;;;;6.60;4.57;;;27.40;18.30;;;;;;4952872;28;20899;-74
2022/08/14 09:08:33;;;;;;;6.53;5.13;;;27.70;17.30;;;;;;4954931;28;20481;-74
2022/08/14 09:11:04;;;;;;;6.73;5.27;;;27.90;17.40;;;;;;4955843;28;20436;-74
2022/08/14 09:13:30;;;;;;;6.90;4.80;;;27.90;16.70;;;;;;4955167;28;20470;-73
2022/08/14 09:15:56;;;;;;;10.60;4.37;;;27.80;15.10;;;;;;4959047;28;20940;-73
2022/08/14 09:18:22;;;;;;;6.17;4.47;;;28.00;16.40;;;;;;4962960;28;20202;-73
2022/08/14 09:20:53;;;;;;;6.47;5.10;;;28.40;14.90;;;;;;4969235;28;20935;-74
2022/08/14 09:23:19;;;;;;;13.43;4.57;;;28.70;14.60;;;;;;4963512;28;20533;-73
2022/08/14 09:25:48;;;;;;;6.63;4.40;;;28.90;14.00;;;;;;4956287;28;21132;-73
2022/08/14 09:28:15;;;;;;;5.60;4.80;;;28.60;13.40;;;;;;4965803;28;20242;-74
2022/08/14 09:30:48;;;;;;;5.93;4.40;;;28.60;14.80;;;;;;4953582;29;20938;-73
2022/08/14 09:33:33;;;;;;;4.70;4.40;;;29.00;15.00;;;;;;4953989;29;20859;-73
2022/08/14 09:36:19;;;;;;;4.30;4.10;;;29.10;13.20;;;;;;4954184;29;20439;-73
2022/08/14 09:39:06;;;;;;;148.60;16.97;;;29.20;13.40;;;;;;4952497;29;20447;-73
2022/08/14 09:41:55;;;;;;;8.03;4.37;;;29.10;14.10;;;;;;4936510;29;20431;-74
2022/08/14 09:44:46;;;;;;;5.90;3.77;;;29.40;13.40;;;;;;4953865;29;20508;-73
2022/08/14 09:47:15;;;;;;;5.20;3.93;;;29.50;13.70;;;;;;4954087;29;20400;-73
2022/08/14 09:49:42;;;;;;;4.07;3.87;;;29.40;12.50;;;;;;4953038;29;20489;-73
2022/08/14 09:52:15;;;;;;;4.13;3.93;;;29.30;12.00;;;;;;4952787;29;20413;-73
2022/08/14 09:54:43;;;;;;;3.70;3.53;;;29.40;13.10;;;;;;4953452;29;20425;-73
2022/08/14 09:57:26;;;;;;;4.30;3.83;;;29.40;13.90;;;;;;4953839;29;20559;-73
2022/08/14 09:59:52;;;;;;;4.90;3.70;;;29.80;11.40;;;;;;4952291;29;20457;-73
2022/08/14 10:02:20;;;;;;;7.30;3.80;;;29.90;12.50;;;;;;4953647;29;20430;-73
2022/08/14 10:04:47;;;;;;;3.80;3.60;;;30.00;12.00;;;;;;4953605;29;20419;-73
2022/08/14 10:07:13;;;;;;;4.70;3.80;;;30.30;11.20;;;;;;4953910;29;20406;-73
2022/08/14 10:09:49;;;;;;;4.17;3.93;;;30.30;10.90;;;;;;4953686;29;20435;-74
2022/08/14 10:12:14;;;;;;;5.67;3.70;;;30.60;10.60;;;;;;4951671;29;20191;-73
2022/08/14 10:14:40;;;;;;;5.80;3.70;;;30.80;10.40;;;;;;4936306;29;20426;-73
2022/08/14 10:17:06;;;;;;;6.70;3.60;;;30.90;9.90;;;;;;4953607;29;20622;-73
2022/08/14 10:19:33;;;;;;;5.23;3.67;;;31.10;10.30;;;;;;4953426;29;20198;-73
2022/08/14 10:21:59;;;;;;;8.83;3.30;;;31.30;9.80;;;;;;4951672;28;20421;-73
2022/08/14 10:24:29;;;;;;;5.27;3.70;;;31.50;9.50;;;;;;4952464;29;20415;-73
2022/08/14 10:26:57;;;;;;;4.90;3.50;;;31.30;9.10;;;;;;4953600;29;20898;-73
2022/08/14 10:29:37;;;;;;;3.40;3.20;;;31.30;8.40;;;;;;4951318;28;20472;-73
2022/08/14 10:32:03;;;;;;;4.10;3.50;;;31.50;8.70;;;;;;4953714;28;20434;-73
2022/08/14 10:34:32;;;;;;;5.67;3.53;;;31.50;8.90;;;;;;4942744;28;20437;-73
2022/08/14 10:37:12;;;;;;;8.43;3.73;;;31.80;8.80;;;;;;4952804;28;20455;-72
2022/08/14 10:39:39;;;;;;;3.90;3.27;;;31.90;8.00;;;;;;4944919;28;20984;-73
2022/08/14 10:42:05;;;;;;;4.20;3.63;;;32.00;9.00;;;;;;4951313;28;20436;-72
2022/08/14 10:44:39;;;;;;;4.10;3.20;;;32.10;9.00;;;;;;4957324;28;20442;-73
2022/08/14 10:47:09;;;;;;;3.50;3.10;;;32.00;8.80;;;;;;4949138;28;20203;-74
2022/08/14 10:49:47;;;;;;;6.20;3.30;;;32.20;8.30;;;;;;4949832;28;20470;-74
2022/08/14 10:52:20;;;;;;;4.20;3.00;;;32.10;7.40;;;;;;4955650;28;20937;-74
2022/08/14 10:54:47;;;;;;;5.93;3.10;;;32.20;8.20;;;;;;4955884;28;21151;-74
2022/08/14 10:57:16;;;;;;;3.70;3.33;;;32.70;9.20;;;;;;4954634;28;20847;-74
2022/08/14 10:59:48;;;;;;;5.43;2.90;;;32.90;7.90;;;;;;4954740;28;20454;-74
2022/08/14 11:02:36;;;;;;;4.57;2.97;;;33.10;5.80;;;;;;4955005;28;20430;-74
2022/08/14 11:05:16;;;;;;;4.53;3.10;;;33.10;6.30;;;;;;4960756;28;20444;-74
2022/08/14 11:07:54;;;;;;;2.87;2.60;;;32.10;6.10;;;;;;4958954;28;20426;-74
2022/08/14 11:10:43;;;;;;;8.13;2.80;;;32.50;6.60;;;;;;4952544;29;20415;-74
2022/08/14 11:13:17;;;;;;;4.23;3.13;;;33.10;7.80;;;;;;4935204;28;20457;-74
2022/08/14 11:15:45;;;;;;;3.50;3.20;;;33.30;7.70;;;;;;4953224;28;20427;-74
2022/08/14 11:18:11;;;;;;;6.60;3.50;;;33.50;5.90;;;;;;4954656;28;20465;-74
2022/08/14 11:20:38;;;;;;;3.60;3.40;;;33.50;6.10;;;;;;4961855;28;20425;-74
2022/08/14 11:23:06;;;;;;;5.10;2.93;;;33.30;6.10;;;;;;4955778;28;20430;-74
2022/08/14 11:25:32;;;;;;;3.87;2.93;;;33.60;6.10;;;;;;4953402;28;20787;-74
2022/08/14 11:27:59;;;;;;;3.90;2.80;;;33.90;6.30;;;;;;4952472;29;20427;-74
2022/08/14 11:30:27;;;;;;;4.70;2.97;;;35.00;6.80;;;;;;4953052;29;20210;-75
2022/08/14 11:32:54;;;;;;;264.67;12.60;;;35.90;4.90;;;;;;4937368;28;20446;-75
2022/08/14 11:35:23;;;;;;;65.37;5.23;;;36.70;4.50;;;;;;4953363;28;20465;-75
2022/08/14 11:38:02;;;;;;;1877.47;739.27;;;38.00;3.20;;;;;;4962273;28;20498;-75
2022/08/14 11:40:33;;;;;;;4.80;2.53;;;38.20;3.70;;;;;;4939445;29;20775;-75
2022/08/14 11:43:00;;;;;;;2.77;2.60;;;38.40;3.30;;;;;;4960574;28;20789;-75
2022/08/14 11:45:34;;;;;;;3.27;2.50;;;39.00;1.60;;;;;;4953184;29;20469;-75
2022/08/14 11:48:16;;;;;;;2.63;2.50;;;38.50;1.40;;;;;;4960674;28;20550;-75
2022/08/14 11:50:42;;;;;;;2.73;2.53;;;39.30;1.70;;;;;;4956012;28;20437;-75
2022/08/14 11:53:21;;;;;;;2.80;2.60;;;40.10;1.00;;;;;;4964163;28;20594;-75
2022/08/14 11:55:55;;;;;;;3.50;2.53;;;40.40;1.00;;;;;;4953365;28;20533;-76
2022/08/14 11:58:26;;;;;;;2.63;2.40;;;41.20;1.00;;;;;;4961746;28;20483;-76
2022/08/14 12:00:58;;;;;;;10.33;2.63;;;41.10;1.00;;;;;;4962869;28;20443;-76
2022/08/14 12:03:36;;;;;;;5.40;2.57;;;41.40;1.00;;;;;;4949934;28;20430;-76
2022/08/14 12:06:11;;;;;;;2.70;2.40;;;41.40;1.00;;;;;;4952240;28;20430;-76
2022/08/14 12:08:37;;;;;;;5.40;2.53;;;41.60;1.00;;;;;;4964844;28;20826;-74
2022/08/14 12:11:05;;;;;;;5.70;2.50;;;40.80;1.00;;;;;;4972242;28;20906;-75
2022/08/14 12:13:32;;;;;;;7.90;2.70;;;39.80;1.00;;;;;;4960725;28;20509;-74
2022/08/14 12:16:04;;;;;;;4.63;2.33;;;39.90;1.00;;;;;;4958570;28;20453;-75
2022/08/14 12:18:35;;;;;;;3.67;2.90;;;40.90;1.00;;;;;;4953964;28;21059;-74
2022/08/14 12:21:17;;;;;;;2.80;2.50;;;42.30;1.00;;;;;;4968415;28;20426;-74
2022/08/14 12:23:44;;;;;;;8.33;2.87;;;43.00;1.00;;;;;;4957630;28;20465;-74
2022/08/14 12:26:16;;;;;;;2.70;2.30;;;41.40;1.00;;;;;;4960601;28;20550;-74
2022/08/14 12:28:42;;;;;;;2.73;2.60;;;41.30;1.00;;;;;;4937563;29;20562;-74
2022/08/14 12:31:15;;;;;;;2.80;2.60;;;42.00;1.00;;;;;;4950401;29;20422;-74
2022/08/14 12:33:41;;;;;;;4.67;2.97;;;42.30;1.00;;;;;;4936312;29;20918;-75
2022/08/14 12:36:19;;;;;;;3.87;2.73;;;42.80;1.00;;;;;;4935681;29;20418;-74
2022/08/14 12:38:44;;;;;;;2.93;2.73;;;42.00;1.00;;;;;;4939812;29;20206;-74
2022/08/14 12:41:20;;;;;;;2.97;2.80;;;42.00;1.00;;;;;;4943082;29;20430;-74
2022/08/14 12:43:50;;;;;;;5.10;2.93;;;41.50;1.00;;;;;;4935917;29;20174;-74
2022/08/14 12:46:32;;;;;;;3.10;2.93;;;41.60;1.00;;;;;;4935747;29;20411;-74
2022/08/14 12:49:02;;;;;;;3.97;2.90;;;40.90;1.00;;;;;;4937592;29;20443;-74
2022/08/14 12:51:28;;;;;;;5.93;2.80;;;40.50;1.00;;;;;;4953710;29;20473;-74
2022/08/14 12:53:55;;;;;;;4.40;2.90;;;40.40;1.00;;;;;;4954979;29;20406;-72
2022/08/14 12:56:24;;;;;;;8.00;3.23;;;39.70;1.00;;;;;;4952235;28;20194;-72
2022/08/14 12:58:55;;;;;;;4.03;3.00;;;39.30;1.00;;;;;;4959211;28;20442;-72
2022/08/14 13:01:30;;;;;;;4.37;2.97;;;39.20;1.00;;;;;;4943386;28;20422;-72
2022/08/14 13:04:11;;;;;;;4.60;3.70;;;39.10;1.00;;;;;;4935872;29;20836;-72
2022/08/14 13:06:38;;;;;;;5.23;3.53;;;38.10;1.00;;;;;;4954966;28;20438;-73
2022/08/14 13:09:06;;;;;;;3.93;3.33;;;38.10;1.10;;;;;;4954443;28;20459;-73